createdAt,value
2019-02-22T00:00:10.435Z,97.03
2019-02-22T00:01:10.426Z,96.89
2019-02-22T00:02:10.418Z,96.89
2019-02-22T00:03:10.408Z,97.08
2019-02-22T00:04:10.398Z,97.08
2019-02-22T00:05:10.389Z,97.27
2019-02-22T00:06:10.380Z,97.36
2019-02-22T00:07:10.370Z,97.46
2019-02-22T00:08:10.362Z,97.84
2019-02-22T00:09:10.352Z,97.27
2019-02-22T00:10:10.344Z,96.70
2019-02-22T00:11:10.337Z,97.08
2019-02-22T00:12:10.323Z,96.98
2019-02-22T00:13:10.313Z,96.89
2019-02-22T00:14:10.305Z,96.89
2019-02-22T00:15:10.299Z,97.27
2019-02-22T00:16:10.286Z,96.80
2019-02-22T00:17:10.275Z,97.65
2019-02-22T00:18:10.266Z,96.51
2019-02-22T00:19:10.261Z,97.27
2019-02-22T00:20:10.248Z,96.41
2019-02-22T00:21:10.237Z,96.98
2019-02-22T00:22:10.229Z,97.08
2019-02-22T00:23:10.219Z,97.08
2019-02-22T00:24:10.208Z,96.60
2019-02-22T00:25:10.199Z,96.70
2019-02-22T00:26:11.156Z,97.17
2019-02-22T00:27:10.181Z,97.27
2019-02-22T00:28:10.171Z,97.17
2019-02-22T00:29:10.161Z,97.46
2019-02-22T00:30:10.154Z,97.56
2019-02-22T00:31:10.143Z,97.94
2019-02-22T00:32:10.138Z,97.36
2019-02-22T00:33:10.181Z,96.80
2019-02-22T00:34:10.157Z,97.36
2019-02-22T00:35:10.122Z,96.60
2019-02-22T00:36:10.095Z,96.70
2019-02-22T00:37:10.120Z,96.98
2019-02-22T00:38:10.078Z,96.89
2019-02-22T00:39:10.067Z,96.60
2019-02-22T00:40:10.057Z,96.03
2019-02-22T00:41:10.049Z,96.03
2019-02-22T00:42:10.038Z,96.03
2019-02-22T00:43:10.030Z,95.84
2019-02-22T00:44:10.031Z,95.75
2019-02-22T00:45:10.009Z,95.65
2019-02-22T00:46:10.001Z,95.84
2019-02-22T00:47:09.990Z,96.41
2019-02-22T00:48:09.980Z,96.60
2019-02-22T00:49:09.971Z,96.60
2019-02-22T00:50:09.962Z,96.98
2019-02-22T00:51:09.952Z,96.51
2019-02-22T00:52:09.941Z,96.60
2019-02-22T00:53:09.931Z,96.98
2019-02-22T00:54:09.925Z,96.41
2019-02-22T00:55:09.916Z,96.22
2019-02-22T00:56:09.903Z,96.03
2019-02-22T00:57:09.892Z,96.32
2019-02-22T00:58:09.884Z,96.41
2019-02-22T00:59:09.874Z,96.32
2019-02-22T01:00:09.865Z,96.41
2019-02-22T01:01:09.856Z,96.60
2019-02-22T01:02:09.845Z,96.98
2019-02-22T01:03:09.835Z,96.70
2019-02-22T01:04:09.833Z,96.98
2019-02-22T01:05:09.816Z,96.98
2019-02-22T01:06:09.807Z,96.80
2019-02-22T01:07:09.798Z,97.08
2019-02-22T01:08:09.788Z,97.27
2019-02-22T01:09:09.779Z,97.75
2019-02-22T01:10:09.770Z,97.65
2019-02-22T01:11:09.762Z,97.84
2019-02-22T01:12:09.752Z,97.84
2019-02-22T01:13:09.742Z,98.13
2019-02-22T01:14:09.732Z,98.13
2019-02-22T01:15:09.725Z,97.94
2019-02-22T01:16:09.713Z,97.46
2019-02-22T01:17:09.705Z,97.56
2019-02-22T01:18:09.694Z,98.13
2019-02-22T01:19:09.685Z,97.75
2019-02-22T01:20:09.676Z,98.79
2019-02-22T01:21:09.666Z,98.70
2019-02-22T01:22:09.657Z,98.60
2019-02-22T01:23:09.649Z,98.51
2019-02-22T01:24:09.641Z,98.79
2019-02-22T01:25:09.630Z,98.99
2019-02-22T01:26:09.619Z,99.08
2019-02-22T01:27:09.610Z,99.27
2019-02-22T01:28:09.601Z,99.37
2019-02-22T01:29:09.591Z,98.89
2019-02-22T01:30:09.581Z,98.41
2019-02-22T01:31:09.573Z,98.70
2019-02-22T01:32:09.563Z,98.99
2019-02-22T01:33:09.553Z,98.51
2019-02-22T01:34:09.544Z,98.03
2019-02-22T01:35:09.546Z,99.18
2019-02-22T01:36:09.525Z,99.37
2019-02-22T01:37:09.515Z,98.32
2019-02-22T01:38:09.539Z,98.70
2019-02-22T01:39:09.499Z,98.22
2019-02-22T01:40:09.487Z,98.79
2019-02-22T01:41:09.477Z,99.08
2019-02-22T01:42:09.468Z,98.41
2019-02-22T01:43:09.459Z,98.41
2019-02-22T01:44:09.449Z,98.22
2019-02-22T01:45:09.444Z,98.89
2019-02-22T01:46:09.430Z,99.08
2019-02-22T01:47:09.423Z,99.18
2019-02-22T01:48:09.411Z,99.84
2019-02-22T01:49:09.401Z,99.27
2019-02-22T01:50:09.393Z,99.65
2019-02-22T01:51:09.452Z,99.46
2019-02-22T01:52:09.372Z,99.18
2019-02-22T01:53:09.368Z,99.75
2019-02-22T01:54:09.422Z,99.65
2019-02-22T01:55:09.345Z,99.94
2019-02-22T01:56:09.341Z,98.99
2019-02-22T01:57:09.339Z,99.94
2019-02-22T01:58:09.317Z,99.84
2019-02-22T01:59:09.308Z,99.55
2019-02-22T02:00:09.299Z,99.99
2019-02-22T02:01:09.294Z,99.37
2019-02-22T02:02:09.282Z,99.84
2019-02-22T02:03:09.270Z,99.55
2019-02-22T02:04:09.260Z,99.99
2019-02-22T02:05:09.262Z,99.37
2019-02-22T02:06:09.242Z,99.75
2019-02-22T02:07:09.233Z,99.65
2019-02-22T02:08:09.223Z,99.75
2019-02-22T02:09:09.214Z,99.94
2019-02-22T02:10:09.205Z,99.65
2019-02-22T02:11:09.195Z,99.65
2019-02-22T02:12:09.185Z,99.99
2019-02-22T02:13:09.176Z,99.94
2019-02-22T02:14:09.167Z,99.99
2019-02-22T02:15:09.160Z,99.84
2019-02-22T02:16:09.151Z,99.18
2019-02-22T02:17:09.139Z,99.75
2019-02-22T02:18:09.129Z,99.46
2019-02-22T02:19:09.120Z,99.75
2019-02-22T02:20:09.161Z,99.99
2019-02-22T02:21:09.103Z,99.46
2019-02-22T02:22:09.091Z,99.27
2019-02-22T02:23:09.082Z,99.75
2019-02-22T02:24:09.071Z,99.75
2019-02-22T02:25:09.062Z,99.65
2019-02-22T02:26:09.054Z,99.94
2019-02-22T02:27:09.080Z,99.84
2019-02-22T02:28:09.033Z,99.75
2019-02-22T02:29:09.024Z,99.99
2019-02-22T02:30:09.021Z,99.99
2019-02-22T02:31:09.008Z,99.94
2019-02-22T02:32:08.996Z,99.99
2019-02-22T02:33:08.985Z,99.99
2019-02-22T02:34:08.976Z,99.99
2019-02-22T02:35:08.970Z,99.99
2019-02-22T02:36:08.958Z,99.99
2019-02-22T02:37:08.948Z,99.99
2019-02-22T02:38:08.940Z,99.99
2019-02-22T02:39:08.928Z,99.99
2019-02-22T02:40:08.921Z,99.99
2019-02-22T02:41:11.386Z,99.99
2019-02-22T02:42:08.898Z,99.99
2019-02-22T02:43:08.888Z,99.99
2019-02-22T02:44:08.879Z,99.99
2019-02-22T02:45:08.868Z,99.99
2019-02-22T02:46:08.859Z,99.99
2019-02-22T02:47:08.853Z,99.99
2019-02-22T02:48:08.841Z,99.99
2019-02-22T02:49:08.828Z,99.99
2019-02-22T02:50:08.822Z,99.99
2019-02-22T02:51:08.808Z,99.99
2019-02-22T02:52:08.799Z,99.99
2019-02-22T02:53:08.788Z,99.99
2019-02-22T02:54:08.779Z,99.99
2019-02-22T02:55:08.771Z,99.99
2019-02-22T02:56:08.758Z,99.99
2019-02-22T02:57:08.751Z,99.99
2019-02-22T02:58:08.741Z,99.99
2019-02-22T02:59:08.732Z,99.99
2019-02-22T03:00:08.717Z,99.99
2019-02-22T03:01:08.709Z,99.99
2019-02-22T03:02:08.700Z,99.99
2019-02-22T03:03:08.692Z,99.99
2019-02-22T03:04:08.679Z,99.99
2019-02-22T03:05:08.667Z,99.99
2019-02-22T03:06:08.658Z,99.99
2019-02-22T03:07:08.649Z,99.99
2019-02-22T03:08:08.636Z,99.99
2019-02-22T03:09:08.629Z,99.99
2019-02-22T03:10:08.622Z,99.99
2019-02-22T03:11:20.220Z,99.99
2019-02-22T03:12:08.597Z,99.99
2019-02-22T03:13:08.589Z,99.99
2019-02-22T03:14:08.578Z,99.99
2019-02-22T03:15:08.670Z,99.99
2019-02-22T03:16:08.557Z,99.99
2019-02-22T03:17:08.546Z,99.99
2019-02-22T03:18:08.537Z,99.99
2019-02-22T03:19:08.528Z,99.99
2019-02-22T03:20:08.516Z,99.99
2019-02-22T03:21:08.507Z,99.99
2019-02-22T03:22:08.497Z,99.99
2019-02-22T03:23:08.487Z,99.99
2019-02-22T03:24:08.480Z,99.99
2019-02-22T03:25:08.467Z,99.99
2019-02-22T03:26:08.456Z,99.99
2019-02-22T03:27:08.452Z,99.99
2019-02-22T03:28:08.434Z,99.99
2019-02-22T03:29:08.426Z,99.99
2019-02-22T03:30:08.415Z,99.99
2019-02-22T03:31:08.502Z,99.99
2019-02-22T03:32:08.419Z,99.99
2019-02-22T03:33:08.393Z,99.99
2019-02-22T03:34:08.389Z,99.99
2019-02-22T03:35:08.363Z,99.99
2019-02-22T03:36:08.354Z,99.99
2019-02-22T03:37:08.343Z,99.99
2019-02-22T03:38:08.367Z,99.99
2019-02-22T03:39:08.324Z,99.99
2019-02-22T03:40:08.311Z,99.99
2019-02-22T03:41:08.302Z,99.99
2019-02-22T03:42:08.294Z,99.99
2019-02-22T03:43:08.288Z,99.99
2019-02-22T03:44:08.272Z,99.99
2019-02-22T03:45:08.264Z,99.99
2019-02-22T03:46:08.302Z,99.99
2019-02-22T03:47:08.241Z,99.99
2019-02-22T03:48:08.231Z,99.99
2019-02-22T03:49:08.219Z,99.99
2019-02-22T03:50:08.218Z,99.99
2019-02-22T03:51:08.200Z,99.99
2019-02-22T03:52:08.189Z,99.99
2019-02-22T03:53:08.178Z,99.99
2019-02-22T03:54:08.169Z,99.99
2019-02-22T03:55:08.159Z,99.99
2019-02-22T03:56:08.154Z,99.99
2019-02-22T03:57:08.138Z,99.99
2019-02-22T03:58:08.128Z,99.99
2019-02-22T03:59:08.117Z,99.99
2019-02-22T04:00:08.106Z,99.99
2019-02-22T04:01:08.095Z,99.99
2019-02-22T04:02:08.084Z,99.99
2019-02-22T04:03:08.083Z,99.99
2019-02-22T04:04:08.065Z,99.99
2019-02-22T04:05:08.053Z,99.99
2019-02-22T04:06:08.042Z,99.99
2019-02-22T04:07:08.035Z,99.99
2019-02-22T04:08:08.021Z,99.99
2019-02-22T04:09:08.013Z,99.99
2019-02-22T04:10:08.001Z,99.99
2019-02-22T04:11:07.990Z,99.99
2019-02-22T04:12:07.979Z,99.99
2019-02-22T04:13:07.970Z,99.99
2019-02-22T04:14:07.961Z,99.99
2019-02-22T04:15:07.953Z,99.99
2019-02-22T04:16:07.942Z,99.99
2019-02-22T04:17:07.931Z,99.99
2019-02-22T04:18:07.920Z,99.99
2019-02-22T04:19:07.908Z,99.99
2019-02-22T04:20:07.900Z,99.99
2019-02-22T04:21:07.887Z,99.99
2019-02-22T04:22:07.880Z,99.99
2019-02-22T04:23:07.867Z,99.99
2019-02-22T04:24:07.856Z,99.99
2019-02-22T04:25:07.847Z,99.99
2019-02-22T04:26:07.836Z,99.99
2019-02-22T04:27:07.828Z,99.99
2019-02-22T04:28:07.816Z,99.99
2019-02-22T04:29:07.808Z,99.99
2019-02-22T04:30:07.797Z,99.99
2019-02-22T04:31:07.786Z,99.99
2019-02-22T04:32:07.777Z,99.99
2019-02-22T04:33:07.767Z,99.99
2019-02-22T04:34:07.757Z,99.99
2019-02-22T04:35:07.747Z,99.99
2019-02-22T04:36:07.735Z,99.99
2019-02-22T04:37:07.725Z,99.99
2019-02-22T04:38:07.715Z,99.99
2019-02-22T04:39:07.705Z,99.99
2019-02-22T04:40:07.699Z,99.99
2019-02-22T04:41:07.690Z,99.99
2019-02-22T04:42:07.675Z,99.99
2019-02-22T04:43:07.665Z,99.99
2019-02-22T04:44:07.654Z,99.99
2019-02-22T04:45:07.647Z,99.99
2019-02-22T04:46:07.656Z,99.99
2019-02-22T04:47:07.624Z,99.99
2019-02-22T04:48:07.613Z,99.99
2019-02-22T04:49:07.603Z,99.99
2019-02-22T04:50:07.593Z,99.99
2019-02-22T04:51:07.587Z,99.99
2019-02-22T04:52:07.572Z,99.99
2019-02-22T04:53:07.566Z,99.99
2019-02-22T04:54:07.551Z,99.99
2019-02-22T04:55:07.544Z,99.99
2019-02-22T04:56:07.534Z,99.99
2019-02-22T04:57:07.521Z,99.99
2019-02-22T04:58:07.511Z,99.99
2019-02-22T04:59:07.501Z,99.99
2019-02-22T05:00:07.490Z,99.99
2019-02-22T05:01:07.479Z,99.99
2019-02-22T05:02:07.469Z,99.99
2019-02-22T05:03:07.460Z,99.99
2019-02-22T05:04:07.449Z,99.99
2019-02-22T05:05:07.439Z,99.99
2019-02-22T05:06:07.430Z,99.99
2019-02-22T05:07:07.420Z,99.99
2019-02-22T05:08:07.407Z,99.99
2019-02-22T05:09:07.399Z,99.99
2019-02-22T05:10:07.388Z,99.99
2019-02-22T05:11:07.377Z,99.99
2019-02-22T05:12:10.781Z,99.99
2019-02-22T05:13:07.356Z,99.99
2019-02-22T05:14:07.346Z,99.99
2019-02-22T05:15:12.565Z,99.99
2019-02-22T05:16:07.327Z,99.99
2019-02-22T05:17:07.315Z,99.99
2019-02-22T05:18:07.308Z,99.99
2019-02-22T05:19:07.297Z,99.99
2019-02-22T05:20:07.284Z,99.99
2019-02-22T05:21:07.274Z,99.99
2019-02-22T05:22:07.264Z,99.99
2019-02-22T05:23:07.630Z,99.99
2019-02-22T05:24:07.242Z,99.99
2019-02-22T05:25:07.233Z,99.99
2019-02-22T05:26:07.225Z,99.99
2019-02-22T05:27:07.212Z,99.99
2019-02-22T05:28:07.201Z,99.99
2019-02-22T05:29:07.193Z,99.99
2019-02-22T05:30:07.182Z,99.99
2019-02-22T05:31:07.173Z,99.99
2019-02-22T05:32:07.159Z,99.99
2019-02-22T05:33:07.150Z,99.99
2019-02-22T05:34:07.139Z,99.99
2019-02-22T05:35:07.129Z,99.99
2019-02-22T05:36:07.135Z,99.99
2019-02-22T05:37:07.107Z,99.99
2019-02-22T05:38:07.097Z,99.99
2019-02-22T05:39:18.476Z,99.99
2019-02-22T05:40:07.077Z,99.99
2019-02-22T05:41:07.068Z,99.99
2019-02-22T05:42:07.058Z,99.99
2019-02-22T05:43:07.044Z,99.99
2019-02-22T05:44:07.032Z,99.99
2019-02-22T05:45:07.021Z,99.99
2019-02-22T05:46:07.017Z,99.99
2019-02-22T05:47:07.001Z,99.99
2019-02-22T05:48:07.013Z,99.99
2019-02-22T05:49:06.978Z,99.99
2019-02-22T05:50:06.968Z,99.99
2019-02-22T05:51:06.958Z,99.99
2019-02-22T05:52:06.955Z,99.99
2019-02-22T05:53:06.936Z,99.99
2019-02-22T05:54:06.935Z,99.99
2019-02-22T05:55:06.915Z,99.99
2019-02-22T05:56:06.906Z,99.99
2019-02-22T05:57:06.894Z,99.99
2019-02-22T05:58:06.882Z,99.99
2019-02-22T05:59:06.872Z,99.99
2019-02-22T06:00:06.871Z,99.99
2019-02-22T06:01:07.077Z,99.99
2019-02-22T06:02:06.839Z,99.99
2019-02-22T06:03:06.830Z,99.99
2019-02-22T06:04:06.818Z,99.99
2019-02-22T06:05:06.808Z,99.99
2019-02-22T06:06:06.796Z,99.99
2019-02-22T06:07:06.786Z,99.99
2019-02-22T06:08:08.813Z,99.99
2019-02-22T06:09:06.764Z,99.99
2019-02-22T06:10:06.757Z,99.99
2019-02-22T06:11:06.745Z,99.99
2019-02-22T06:12:06.742Z,99.99
2019-02-22T06:13:06.725Z,99.99
2019-02-22T06:14:06.712Z,99.99
2019-02-22T06:15:06.707Z,99.99
2019-02-22T06:16:06.689Z,99.99
2019-02-22T06:17:14.226Z,99.99
2019-02-22T06:18:06.669Z,99.99
2019-02-22T06:19:06.658Z,99.99
2019-02-22T06:20:06.648Z,99.99
2019-02-22T06:21:06.637Z,99.99
2019-02-22T06:22:06.627Z,99.99
2019-02-22T06:23:06.615Z,99.99
2019-02-22T06:24:06.604Z,99.99
2019-02-22T06:25:06.595Z,99.99
2019-02-22T06:26:06.585Z,99.99
2019-02-22T06:27:06.574Z,99.99
2019-02-22T06:28:06.562Z,99.99
2019-02-22T06:29:06.552Z,99.99
2019-02-22T06:30:06.541Z,99.99
2019-02-22T06:31:06.531Z,99.99
2019-02-22T06:32:06.528Z,99.99
2019-02-22T06:33:06.510Z,99.99
2019-02-22T06:34:06.499Z,99.99
2019-02-22T06:35:08.784Z,99.99
2019-02-22T06:36:06.478Z,99.99
2019-02-22T06:37:06.468Z,99.99
2019-02-22T06:38:06.461Z,99.99
2019-02-22T06:39:06.449Z,99.99
2019-02-22T06:40:06.438Z,99.99
2019-02-22T06:41:06.429Z,99.99
2019-02-22T06:42:06.414Z,99.99
2019-02-22T06:43:06.404Z,99.99
2019-02-22T06:44:06.392Z,99.99
2019-02-22T06:45:06.383Z,99.99
2019-02-22T06:46:06.372Z,99.99
2019-02-22T06:47:06.368Z,99.99
2019-02-22T06:48:06.351Z,99.99
2019-02-22T06:49:06.339Z,99.99
2019-02-22T06:50:06.338Z,99.99
2019-02-22T06:51:06.319Z,99.99
2019-02-22T06:52:06.308Z,99.99
2019-02-22T06:53:06.298Z,99.99
2019-02-22T06:54:06.288Z,99.99
2019-02-22T06:55:06.277Z,99.99
2019-02-22T06:56:06.266Z,99.99
2019-02-22T06:57:06.256Z,99.99
2019-02-22T06:58:06.246Z,99.99
2019-02-22T06:59:06.235Z,99.99
2019-02-22T07:00:06.225Z,99.99
2019-02-22T07:01:06.213Z,99.99
2019-02-22T07:02:06.206Z,99.99
2019-02-22T07:03:06.195Z,99.99
2019-02-22T07:04:06.261Z,99.99
2019-02-22T07:05:06.171Z,99.99
2019-02-22T07:06:06.164Z,99.99
2019-02-22T07:07:06.153Z,99.99
2019-02-22T07:08:06.142Z,99.99
2019-02-22T07:09:06.155Z,99.99
2019-02-22T07:10:06.119Z,99.99
2019-02-22T07:11:06.108Z,99.99
2019-02-22T07:12:06.098Z,99.99
2019-02-22T07:13:06.089Z,99.99
2019-02-22T07:14:06.077Z,99.99
2019-02-22T07:15:06.068Z,99.99
2019-02-22T07:16:06.055Z,99.99
2019-02-22T07:17:06.044Z,99.99
2019-02-22T07:18:06.034Z,99.99
2019-02-22T07:19:06.024Z,99.99
2019-02-22T07:20:06.013Z,99.99
2019-02-22T07:21:06.002Z,99.99
2019-02-22T07:22:05.993Z,99.99
2019-02-22T07:23:05.981Z,99.99
2019-02-22T07:24:05.972Z,99.99
2019-02-22T07:25:05.960Z,99.99
2019-02-22T07:26:05.953Z,99.99
2019-02-22T07:27:05.940Z,99.99
2019-02-22T07:28:05.929Z,99.99
2019-02-22T07:29:05.918Z,99.99
2019-02-22T07:30:05.913Z,99.99
2019-02-22T07:31:05.898Z,99.99
2019-02-22T07:32:06.481Z,99.99
2019-02-22T07:33:05.876Z,99.99
2019-02-22T07:34:05.880Z,99.99
2019-02-22T07:35:05.863Z,99.99
2019-02-22T07:36:05.844Z,99.99
2019-02-22T07:37:05.834Z,99.99
2019-02-22T07:38:05.874Z,99.99
2019-02-22T07:39:05.813Z,99.99
2019-02-22T07:40:05.802Z,99.99
2019-02-22T07:41:05.792Z,99.99
2019-02-22T07:42:05.782Z,99.99
2019-02-22T07:43:08.308Z,99.99
2019-02-22T07:44:05.759Z,99.99
2019-02-22T07:45:05.749Z,99.99
2019-02-22T07:46:05.739Z,99.99
2019-02-22T07:47:05.729Z,99.99
2019-02-22T07:48:05.720Z,99.99
2019-02-22T07:49:05.708Z,99.99
2019-02-22T07:50:05.696Z,99.99
2019-02-22T07:51:05.686Z,99.99
2019-02-22T07:52:05.677Z,99.99
2019-02-22T07:53:05.664Z,99.99
2019-02-22T07:54:05.654Z,99.99
2019-02-22T07:55:05.646Z,99.99
2019-02-22T07:56:05.632Z,99.99
2019-02-22T07:57:05.632Z,99.99
2019-02-22T07:58:05.612Z,99.99
2019-02-22T07:59:05.607Z,99.99
2019-02-22T08:00:05.590Z,99.99
2019-02-22T08:01:05.586Z,99.99
2019-02-22T08:02:05.569Z,99.99
2019-02-22T08:03:05.559Z,99.99
2019-02-22T08:04:05.547Z,99.99
2019-02-22T08:05:05.540Z,99.99
2019-02-22T08:06:05.529Z,99.99
2019-02-22T08:07:05.519Z,99.99
2019-02-22T08:08:05.504Z,99.99
2019-02-22T08:09:05.495Z,99.99
2019-02-22T08:10:05.500Z,99.99
2019-02-22T08:11:05.482Z,99.99
2019-02-22T08:12:05.462Z,99.99
2019-02-22T08:13:05.452Z,99.99
2019-02-22T08:14:07.810Z,99.99
2019-02-22T08:15:05.434Z,99.99
2019-02-22T08:16:05.421Z,99.99
2019-02-22T08:17:05.410Z,99.99
2019-02-22T08:18:05.401Z,99.99
2019-02-22T08:19:05.389Z,99.99
2019-02-22T08:20:05.379Z,99.99
2019-02-22T08:21:05.368Z,99.99
2019-02-22T08:22:05.358Z,99.99
2019-02-22T08:23:05.348Z,99.99
2019-02-22T08:24:05.336Z,99.99
2019-02-22T08:25:05.326Z,99.99
2019-02-22T08:26:05.320Z,99.99
2019-02-22T08:27:05.306Z,99.99
2019-02-22T08:28:05.294Z,99.99
2019-02-22T08:29:05.284Z,99.99
2019-02-22T08:30:05.274Z,99.99
2019-02-22T08:31:05.264Z,99.99
2019-02-22T08:32:05.252Z,99.99
2019-02-22T08:33:05.252Z,99.99
2019-02-22T08:34:05.232Z,99.99
2019-02-22T08:35:05.222Z,99.99
2019-02-22T08:36:05.211Z,99.99
2019-02-22T08:37:05.202Z,99.99
2019-02-22T08:38:05.190Z,99.99
2019-02-22T08:39:05.180Z,99.99
2019-02-22T08:40:05.169Z,99.99
2019-02-22T08:41:05.159Z,99.99
2019-02-22T08:42:05.149Z,99.99
2019-02-22T08:43:05.141Z,99.99
2019-02-22T08:44:05.129Z,99.99
2019-02-22T08:45:05.118Z,99.99
2019-02-22T08:46:05.108Z,99.99
2019-02-22T08:47:05.098Z,99.99
2019-02-22T08:48:05.088Z,99.99
2019-02-22T08:49:05.077Z,99.99
2019-02-22T08:50:05.117Z,99.99
2019-02-22T08:51:05.145Z,99.99
2019-02-22T08:52:05.049Z,99.99
2019-02-22T08:53:05.037Z,99.99
2019-02-22T08:54:05.027Z,99.99
2019-02-22T08:55:05.016Z,99.99
2019-02-22T08:56:05.008Z,99.99
2019-02-22T08:57:04.997Z,99.99
2019-02-22T08:58:04.987Z,99.99
2019-02-22T08:59:04.978Z,99.99
2019-02-22T09:00:04.966Z,99.99
2019-02-22T09:01:05.006Z,99.99
2019-02-22T09:02:04.947Z,99.99
2019-02-22T09:03:04.937Z,99.99
2019-02-22T09:04:04.927Z,99.99
2019-02-22T09:05:04.918Z,99.99
2019-02-22T09:06:04.907Z,99.99
2019-02-22T09:07:04.897Z,99.99
2019-02-22T09:08:04.887Z,99.99
2019-02-22T09:09:04.878Z,99.99
2019-02-22T09:10:04.892Z,99.99
2019-02-22T09:11:04.857Z,99.99
2019-02-22T09:12:04.846Z,99.99
2019-02-22T09:13:04.839Z,99.99
2019-02-22T09:14:04.827Z,99.99
2019-02-22T09:15:04.818Z,99.99
2019-02-22T09:16:04.807Z,99.99
2019-02-22T09:17:04.797Z,99.99
2019-02-22T09:18:04.787Z,99.99
2019-02-22T09:19:04.777Z,99.99
2019-02-22T09:20:04.767Z,99.99
2019-02-22T09:21:04.762Z,99.99
2019-02-22T09:22:04.748Z,99.99
2019-02-22T09:23:07.438Z,99.99
2019-02-22T09:24:04.728Z,99.99
2019-02-22T09:25:04.720Z,99.99
2019-02-22T09:26:04.709Z,99.99
2019-02-22T09:27:04.701Z,99.99
2019-02-22T09:28:04.692Z,99.99
2019-02-22T09:29:04.682Z,99.99
2019-02-22T09:30:04.670Z,99.99
2019-02-22T09:31:04.660Z,99.99
2019-02-22T09:32:04.651Z,99.99
2019-02-22T09:33:04.643Z,99.99
2019-02-22T09:34:04.631Z,99.99
2019-02-22T09:35:04.621Z,99.99
2019-02-22T09:36:04.612Z,99.99
2019-02-22T09:37:04.602Z,99.99
2019-02-22T09:38:04.592Z,99.99
2019-02-22T09:39:04.582Z,99.99
2019-02-22T09:40:04.571Z,99.99
2019-02-22T09:41:04.561Z,99.99
2019-02-22T09:42:04.552Z,99.99
2019-02-22T09:43:04.542Z,99.99
2019-02-22T09:44:04.532Z,99.99
2019-02-22T09:45:04.523Z,99.99
2019-02-22T09:46:04.514Z,99.99
2019-02-22T09:47:04.504Z,99.99
2019-02-22T09:48:04.494Z,99.99
2019-02-22T09:49:04.484Z,99.99
2019-02-22T09:50:04.474Z,99.99
2019-02-22T09:51:04.468Z,99.99
2019-02-22T09:52:04.457Z,99.99
2019-02-22T09:53:04.445Z,99.99
2019-02-22T09:54:04.436Z,99.99
2019-02-22T09:55:04.427Z,99.99
2019-02-22T09:56:04.416Z,99.99
2019-02-22T09:57:04.411Z,99.99
2019-02-22T09:58:04.402Z,99.99
2019-02-22T09:59:04.398Z,99.99
2019-02-22T10:00:04.379Z,99.99
2019-02-22T10:01:04.371Z,99.99
2019-02-22T10:02:04.360Z,99.99
2019-02-22T10:03:04.351Z,99.99
2019-02-22T10:04:04.340Z,99.99
2019-02-22T10:05:04.332Z,99.99
2019-02-22T10:06:04.322Z,99.99
2019-02-22T10:07:04.316Z,99.99
2019-02-22T10:08:04.302Z,99.99
2019-02-22T10:09:04.296Z,99.99
2019-02-22T10:10:04.283Z,99.99
2019-02-22T10:11:04.275Z,99.99
2019-02-22T10:12:04.264Z,99.99
2019-02-22T10:13:04.255Z,99.99
2019-02-22T10:14:06.921Z,99.99
2019-02-22T10:15:04.237Z,99.99
2019-02-22T10:16:04.227Z,99.99
2019-02-22T10:17:04.223Z,99.99
2019-02-22T10:18:04.217Z,99.99
2019-02-22T10:19:04.200Z,99.99
2019-02-22T10:20:04.190Z,99.99
2019-02-22T10:21:04.180Z,99.99
2019-02-22T10:22:04.177Z,99.99
2019-02-22T10:23:04.163Z,99.99
2019-02-22T10:24:04.152Z,99.99
2019-02-22T10:25:04.143Z,99.99
2019-02-22T10:26:04.134Z,99.99
2019-02-22T10:27:04.127Z,99.99
2019-02-22T10:28:04.115Z,99.99
2019-02-22T10:29:04.106Z,99.99
2019-02-22T10:30:04.101Z,99.99
2019-02-22T10:31:04.088Z,99.99
2019-02-22T10:32:04.082Z,99.99
2019-02-22T10:33:04.068Z,99.99
2019-02-22T10:34:04.065Z,99.99
2019-02-22T10:35:04.051Z,99.99
2019-02-22T10:36:04.043Z,99.99
2019-02-22T10:37:04.031Z,99.99
2019-02-22T10:38:04.023Z,99.99
2019-02-22T10:39:06.015Z,99.99
2019-02-22T10:40:04.004Z,99.99
2019-02-22T10:41:03.995Z,99.99
2019-02-22T10:42:03.986Z,99.99
2019-02-22T10:43:03.980Z,99.99
2019-02-22T10:44:03.970Z,99.99
2019-02-22T10:45:03.959Z,99.99
2019-02-22T10:46:03.953Z,99.99
2019-02-22T10:47:03.940Z,99.99
2019-02-22T10:48:03.930Z,99.99
2019-02-22T10:49:03.942Z,99.99
2019-02-22T10:50:03.913Z,99.99
2019-02-22T10:51:03.904Z,99.99
2019-02-22T10:52:03.894Z,99.99
2019-02-22T10:53:03.894Z,99.99
2019-02-22T10:54:03.881Z,99.99
2019-02-22T10:55:03.868Z,99.99
2019-02-22T10:56:03.857Z,99.99
2019-02-22T10:57:03.851Z,99.99
2019-02-22T10:58:03.840Z,99.99
2019-02-22T10:59:03.831Z,99.99
2019-02-22T11:00:03.828Z,99.99
2019-02-22T11:01:03.813Z,99.99
2019-02-22T11:02:03.815Z,99.99
2019-02-22T11:03:03.796Z,99.99
2019-02-22T11:04:03.787Z,99.99
2019-02-22T11:05:03.779Z,99.99
2019-02-22T11:06:03.770Z,99.99
2019-02-22T11:07:03.762Z,99.99
2019-02-22T11:08:03.751Z,99.99
2019-02-22T11:09:03.744Z,99.99
2019-02-22T11:10:03.735Z,99.99
2019-02-22T11:11:03.727Z,99.99
2019-02-22T11:12:03.797Z,99.99
2019-02-22T11:13:03.708Z,99.99
2019-02-22T11:14:03.699Z,99.99
2019-02-22T11:15:03.690Z,99.99
2019-02-22T11:16:03.681Z,99.99
2019-02-22T11:17:03.672Z,99.99
2019-02-22T11:18:03.664Z,99.99
2019-02-22T11:19:03.656Z,99.99
2019-02-22T11:20:03.646Z,99.99
2019-02-22T11:21:03.637Z,99.99
2019-02-22T11:22:03.628Z,99.99
2019-02-22T11:23:03.619Z,99.99
2019-02-22T11:24:03.609Z,99.99
2019-02-22T11:25:03.604Z,99.99
2019-02-22T11:26:03.592Z,99.99
2019-02-22T11:27:03.587Z,99.99
2019-02-22T11:28:03.574Z,99.99
2019-02-22T11:29:03.565Z,99.99
2019-02-22T11:30:03.557Z,99.99
2019-02-22T11:31:03.551Z,99.99
2019-02-22T11:32:03.541Z,99.99
2019-02-22T11:33:03.530Z,99.99
2019-02-22T11:34:03.525Z,99.99
2019-02-22T11:35:03.511Z,99.99
2019-02-22T11:36:03.507Z,99.99
2019-02-22T11:37:03.494Z,99.99
2019-02-22T11:38:03.485Z,99.99
2019-02-22T11:39:03.495Z,99.99
2019-02-22T11:40:03.466Z,99.99
2019-02-22T11:41:03.457Z,99.99
2019-02-22T11:42:03.452Z,99.99
2019-02-22T11:43:03.443Z,99.99
2019-02-22T11:44:03.431Z,99.99
2019-02-22T11:45:03.421Z,99.99
2019-02-22T11:46:03.413Z,99.99
2019-02-22T11:47:03.404Z,99.99
2019-02-22T11:48:09.224Z,99.99
2019-02-22T11:49:03.386Z,99.99
2019-02-22T11:50:03.378Z,99.99
2019-02-22T11:51:03.370Z,99.99
2019-02-22T11:52:03.360Z,99.99
2019-02-22T11:53:03.352Z,99.99
2019-02-22T11:54:03.343Z,99.99
2019-02-22T11:55:03.335Z,99.99
2019-02-22T11:56:03.326Z,99.99
2019-02-22T11:57:03.317Z,99.99
2019-02-22T11:58:03.310Z,99.99
2019-02-22T11:59:03.302Z,99.99
2019-02-22T12:00:03.295Z,99.99
2019-02-22T12:01:03.933Z,99.99
2019-02-22T12:02:03.276Z,99.99
2019-02-22T12:03:15.878Z,99.99
2019-02-22T12:04:03.260Z,99.99
2019-02-22T12:05:03.248Z,99.99
2019-02-22T12:06:03.240Z,99.99
2019-02-22T12:07:03.232Z,99.99
2019-02-22T12:08:03.680Z,99.99
2019-02-22T12:09:03.215Z,99.99
2019-02-22T12:10:03.218Z,99.99
2019-02-22T12:11:03.197Z,99.99
2019-02-22T12:12:03.188Z,99.99
2019-02-22T12:13:03.184Z,99.99
2019-02-22T12:14:03.171Z,99.99
2019-02-22T12:15:03.162Z,99.99
2019-02-22T12:16:03.154Z,99.99
2019-02-22T12:17:03.145Z,99.99
2019-02-22T12:18:03.138Z,99.99
2019-02-22T12:19:03.128Z,99.99
2019-02-22T12:20:03.118Z,99.99
2019-02-22T12:21:03.109Z,99.99
2019-02-22T12:22:03.103Z,99.99
2019-02-22T12:23:03.095Z,99.99
2019-02-22T12:24:03.088Z,99.99
2019-02-22T12:25:03.075Z,99.99
2019-02-22T12:26:03.067Z,99.99
2019-02-22T12:27:03.059Z,99.99
2019-02-22T12:28:03.049Z,99.99
2019-02-22T12:29:03.042Z,99.99
2019-02-22T12:30:03.037Z,99.99
2019-02-22T12:31:03.031Z,99.99
2019-02-22T12:32:03.015Z,99.99
2019-02-22T12:33:03.009Z,99.99
2019-02-22T12:34:03.002Z,99.99
2019-02-22T12:35:02.991Z,99.99
2019-02-22T12:36:02.982Z,99.99
2019-02-22T12:37:02.975Z,99.99
2019-02-22T12:38:02.965Z,99.99
2019-02-22T12:39:02.957Z,99.99
2019-02-22T12:40:02.949Z,99.99
2019-02-22T12:41:02.940Z,99.99
2019-02-22T12:42:02.932Z,99.99
2019-02-22T12:43:02.927Z,99.99
2019-02-22T12:44:02.924Z,99.99
2019-02-22T12:45:03.636Z,99.99
2019-02-22T12:46:02.899Z,99.99
2019-02-22T12:47:02.891Z,99.99
2019-02-22T12:48:02.882Z,99.99
2019-02-22T12:49:02.874Z,99.99
2019-02-22T12:50:02.876Z,99.99
2019-02-22T12:51:02.858Z,99.99
2019-02-22T12:52:02.852Z,99.99